createdAt,value
2022-09-07T00:00:36.516Z,74.10
2022-09-07T00:05:43.493Z,74.10
2022-09-07T00:10:59.618Z,74.30
2022-09-07T00:16:14.649Z,74.40
2022-09-07T00:21:18.158Z,74.00
2022-09-07T00:26:23.843Z,74.30
2022-09-07T00:31:29.733Z,74.50
2022-09-07T00:36:32.248Z,74.00
2022-09-07T00:41:34.652Z,73.20
2022-09-07T00:46:37.132Z,73.40
2022-09-07T00:51:42.448Z,73.60
2022-09-07T00:56:47.102Z,73.60
2022-09-07T01:01:49.736Z,75.10
2022-09-07T01:06:55.320Z,74.30
2022-09-07T01:12:02.137Z,74.50
2022-09-07T01:17:26.335Z,75.20
2022-09-07T01:23:10.637Z,74.20
2022-09-07T01:28:39.831Z,74.20
2022-09-07T01:33:45.445Z,74.20
2022-09-07T01:38:54.082Z,73.70
2022-09-07T01:44:07.580Z,73.90
2022-09-07T01:49:22.516Z,74.10
2022-09-07T01:54:32.915Z,74.10
2022-09-07T01:59:45.606Z,74.90
2022-09-07T02:04:59.079Z,74.90
2022-09-07T02:10:10.941Z,74.80
2022-09-07T02:15:18.838Z,75.90
2022-09-07T02:20:31.308Z,75.20
2022-09-07T02:25:39.070Z,75.90
2022-09-07T02:30:42.553Z,76.00
2022-09-07T02:35:46.227Z,76.80
2022-09-07T02:40:53.231Z,77.70
2022-09-07T02:46:01.662Z,78.00
2022-09-07T02:51:17.890Z,77.50
2022-09-07T02:56:30.946Z,77.30
2022-09-07T03:01:54.715Z,78.00
2022-09-07T03:07:10.422Z,77.80
2022-09-07T03:12:13.291Z,78.00
2022-09-07T03:17:15.977Z,77.50
2022-09-07T03:22:18.416Z,77.40
2022-09-07T03:27:20.836Z,77.10
2022-09-07T03:32:23.244Z,77.30
2022-09-07T03:37:26.041Z,77.50
2022-09-07T03:42:28.420Z,77.80
2022-09-07T03:47:30.872Z,77.90
2022-09-07T03:52:34.896Z,78.50
2022-09-07T03:57:37.574Z,78.70
2022-09-07T04:02:40.467Z,78.60
2022-09-07T04:07:42.903Z,78.80
2022-09-07T04:12:45.324Z,78.80
2022-09-07T04:17:48.313Z,78.70
2022-09-07T04:22:54.222Z,79.00
2022-09-07T04:27:57.291Z,79.80
2022-09-07T04:32:59.677Z,80.10
2022-09-07T04:38:02.124Z,80.30
2022-09-07T04:43:05.532Z,80.30
2022-09-07T04:48:07.968Z,80.00
2022-09-07T04:53:10.445Z,79.00
2022-09-07T04:58:12.931Z,78.30
2022-09-07T05:03:15.309Z,78.30
2022-09-07T05:08:17.764Z,77.60
2022-09-07T05:13:20.337Z,75.90
2022-09-07T05:18:22.774Z,76.40
2022-09-07T05:23:25.542Z,76.10
2022-09-07T05:28:28.046Z,75.80
2022-09-07T05:38:58.688Z,74.80
2022-09-07T05:49:24.005Z,73.40
2022-09-07T05:54:26.667Z,73.00
2022-09-07T05:59:29.471Z,71.70
2022-09-07T06:04:32.154Z,70.70
2022-09-07T06:09:34.805Z,69.50
2022-09-07T06:14:37.247Z,69.10
2022-09-07T06:19:39.667Z,69.80
2022-09-07T06:24:42.248Z,68.60
2022-09-07T06:29:44.704Z,69.00
2022-09-07T06:34:47.200Z,69.20
2022-09-07T06:39:49.816Z,67.80
2022-09-07T06:44:52.266Z,68.20
2022-09-07T06:49:54.763Z,67.50
2022-09-07T07:00:00.421Z,67.10
2022-09-07T07:05:02.964Z,66.50
2022-09-07T07:10:05.888Z,65.50
2022-09-07T07:15:09.062Z,66.90
2022-09-07T07:20:11.532Z,64.60
2022-09-07T07:25:15.075Z,65.40
2022-09-07T07:30:19.068Z,64.40
2022-09-07T07:35:22.866Z,64.40
2022-09-07T07:40:30.346Z,62.70
2022-09-07T07:51:02.641Z,62.10
2022-09-07T07:56:08.421Z,62.80
2022-09-07T08:01:12.868Z,61.60
2022-09-07T08:06:17.403Z,60.10
2022-09-07T08:11:21.047Z,62.10
2022-09-07T08:16:23.554Z,60.40
2022-09-07T08:21:26.035Z,61.00
2022-09-07T08:26:28.629Z,60.60
2022-09-07T08:31:33.065Z,59.70
2022-09-07T08:36:35.466Z,59.90
2022-09-07T08:42:21.025Z,59.10
2022-09-07T08:47:39.488Z,58.90
2022-09-07T08:53:13.690Z,59.30
2022-09-07T08:58:48.842Z,56.90
2022-09-07T09:09:23.748Z,54.70
2022-09-07T09:15:03.619Z,54.80
2022-09-07T09:20:06.318Z,54.10
2022-09-07T09:25:20.686Z,53.70
2022-09-07T09:30:24.985Z,53.50
2022-09-07T09:35:30.434Z,53.20
2022-09-07T09:40:35.147Z,55.00
2022-09-07T09:56:41.906Z,51.00
2022-09-07T10:07:25.942Z,50.00
2022-09-07T10:12:34.216Z,50.00
2022-09-07T10:17:41.795Z,50.30
2022-09-07T10:22:51.773Z,49.50
2022-09-07T10:28:14.121Z,47.70
2022-09-07T10:33:34.615Z,47.90
2022-09-07T10:38:49.793Z,46.20
2022-09-07T10:43:52.504Z,46.60
2022-09-07T10:49:18.951Z,45.80
2022-09-07T10:54:59.381Z,45.60
2022-09-07T11:00:12.892Z,44.50
2022-09-07T11:05:38.454Z,45.80
2022-09-07T11:11:08.111Z,44.90
2022-09-07T11:21:56.417Z,43.60
2022-09-07T11:27:06.334Z,44.10
2022-09-07T11:32:16.635Z,43.30
2022-09-07T11:37:24.754Z,41.90
2022-09-07T11:42:49.423Z,42.50
2022-09-07T11:48:04.976Z,43.60
2022-09-07T11:53:18.031Z,41.00
2022-09-07T11:58:29.915Z,41.00
2022-09-07T12:03:56.542Z,39.90
2022-09-07T12:09:22.232Z,40.90
2022-09-07T12:14:41.849Z,40.70
2022-09-07T12:19:44.251Z,39.40
2022-09-07T12:24:51.634Z,38.90
2022-09-07T12:30:01.785Z,38.10
2022-09-07T12:35:04.377Z,38.20
2022-09-07T12:40:34.908Z,38.70
2022-09-07T12:45:37.322Z,36.50
2022-09-07T12:51:02.919Z,37.40
2022-09-07T12:56:20.074Z,36.80
2022-09-07T13:01:44.346Z,36.00
2022-09-07T13:07:03.109Z,36.80
2022-09-07T13:17:56.531Z,36.40
2022-09-07T13:23:25.228Z,35.70
2022-09-07T13:28:30.168Z,35.20
2022-09-07T13:33:35.834Z,34.30
2022-09-07T13:38:42.682Z,33.80
2022-09-07T13:43:50.171Z,33.10
2022-09-07T13:49:01.723Z,32.00
2022-09-07T13:54:45.311Z,31.70
2022-09-07T13:59:50.886Z,30.50
2022-09-07T14:04:55.811Z,30.70
2022-09-07T14:10:25.261Z,29.80
2022-09-07T14:15:27.609Z,29.50
2022-09-07T14:20:30.657Z,29.10
2022-09-07T14:26:15.924Z,28.80
2022-09-07T14:30:56.127Z,29.30
2022-09-07T14:35:59.099Z,28.20
2022-09-07T14:41:04.484Z,28.70
2022-09-07T14:46:22.846Z,28.80
2022-09-07T14:51:35.084Z,28.10
2022-09-07T14:56:40.886Z,27.80
2022-09-07T15:01:43.367Z,27.90
2022-09-07T15:07:02.673Z,27.60
2022-09-07T15:12:05.721Z,27.90
2022-09-07T15:17:46.662Z,28.40
2022-09-07T15:22:49.293Z,29.60
2022-09-07T15:27:51.791Z,31.20
2022-09-07T15:32:56.852Z,31.20
2022-09-07T15:38:05.249Z,30.30
2022-09-07T15:43:19.968Z,30.30
2022-09-07T15:48:27.858Z,29.90
2022-09-07T15:58:53.926Z,31.30
2022-09-07T16:03:58.182Z,33.90
2022-09-07T16:09:00.656Z,36.40
2022-09-07T16:14:03.969Z,35.70
2022-09-07T16:19:07.269Z,34.20
2022-09-07T16:24:10.365Z,33.50
2022-09-07T16:29:12.735Z,35.40
2022-09-07T16:34:21.138Z,37.00
2022-09-07T16:39:23.615Z,38.30
2022-09-07T16:44:26.023Z,39.10
2022-09-07T16:49:28.860Z,39.70
2022-09-07T16:54:32.627Z,40.20
2022-09-07T16:59:35.094Z,41.60
2022-09-07T17:04:37.459Z,42.50
2022-09-07T17:09:41.218Z,43.30
2022-09-07T17:14:43.611Z,44.20
2022-09-07T17:19:46.225Z,44.90
2022-09-07T17:24:48.686Z,45.70
2022-09-07T17:29:53.751Z,46.40
2022-09-07T17:34:56.330Z,46.60
2022-09-07T17:39:58.834Z,47.10
2022-09-07T17:45:01.264Z,47.30
2022-09-07T17:50:03.828Z,48.00
2022-09-07T17:55:07.038Z,48.20
2022-09-07T18:00:12.118Z,49.00
2022-09-07T18:05:14.983Z,49.30
2022-09-07T18:10:17.460Z,50.20
2022-09-07T18:15:22.210Z,50.00
2022-09-07T18:20:25.885Z,50.40
2022-09-07T18:25:29.151Z,50.60
2022-09-07T18:30:34.965Z,50.70
2022-09-07T18:35:37.355Z,51.20
2022-09-07T18:40:40.799Z,51.20
2022-09-07T18:45:43.240Z,51.50
2022-09-07T18:50:52.505Z,52.00
2022-09-07T18:56:00.775Z,51.70
2022-09-07T19:01:05.827Z,51.40
2022-09-07T19:06:12.987Z,51.70
2022-09-07T19:11:22.109Z,52.00
2022-09-07T19:16:26.041Z,52.00
2022-09-07T19:21:31.072Z,51.80
2022-09-07T19:26:38.799Z,51.60
2022-09-07T19:31:48.847Z,52.00
2022-09-07T19:36:51.238Z,51.80
2022-09-07T19:41:54.015Z,52.10
2022-09-07T19:46:56.423Z,52.10
2022-09-07T19:51:59.406Z,52.10
2022-09-07T19:57:02.775Z,52.50
2022-09-07T20:02:06.181Z,52.70
2022-09-07T20:07:08.574Z,52.90
2022-09-07T20:12:10.953Z,52.90
2022-09-07T20:17:13.303Z,53.80
2022-09-07T20:22:15.674Z,53.30
2022-09-07T20:27:18.042Z,53.60
2022-09-07T20:32:20.400Z,53.80
2022-09-07T20:37:28.847Z,54.30
2022-09-07T20:42:31.521Z,54.40
2022-09-07T20:47:34.532Z,54.30
2022-09-07T20:52:36.959Z,54.60
2022-09-07T20:57:39.410Z,54.60
2022-09-07T21:02:41.757Z,54.70
2022-09-07T21:07:44.191Z,55.30
2022-09-07T21:12:46.570Z,55.40
2022-09-07T21:17:48.983Z,55.60
2022-09-07T21:22:51.356Z,55.90
2022-09-07T21:27:53.881Z,55.50
2022-09-07T21:32:59.854Z,55.50
2022-09-07T21:38:04.790Z,55.80
2022-09-07T21:43:07.448Z,56.00
2022-09-07T21:48:09.942Z,56.40
2022-09-07T21:53:12.735Z,56.40
2022-09-07T21:58:15.183Z,56.70
2022-09-07T22:03:17.844Z,57.00
2022-09-07T22:08:20.768Z,57.20
2022-09-07T22:13:23.108Z,57.20
2022-09-07T22:18:25.591Z,57.30
2022-09-07T22:23:30.922Z,57.50
2022-09-07T22:28:34.189Z,57.70
2022-09-07T22:33:36.572Z,57.60
2022-09-07T22:38:40.172Z,57.50
2022-09-07T22:43:44.107Z,57.60
2022-09-07T22:48:47.091Z,57.70
2022-09-07T22:53:49.461Z,57.80
2022-09-07T22:59:00.508Z,58.00
2022-09-07T23:04:03.598Z,58.40
2022-09-07T23:09:09.127Z,58.50
2022-09-07T23:14:15.206Z,58.40
2022-09-07T23:19:19.677Z,58.60
2022-09-07T23:24:22.171Z,58.60
2022-09-07T23:29:24.629Z,58.80
2022-09-07T23:34:27.035Z,59.10
2022-09-07T23:39:29.511Z,59.00
2022-09-07T23:44:32.251Z,59.20
2022-09-07T23:49:34.625Z,59.30
2022-09-07T23:54:37.021Z,59.60
2022-09-07T23:59:39.460Z,59.90
